Terminal Aerodrome Forecast
Issued by NWS Indianapolis, IN

Home | Current Version | Previous Version | Text Only | Print | Product List | Glossary On
Versions: 1 2 3 4 5 6 7 8 9 10 11 12 13 14 15 16 17 18 19 20 21 22 23 24 25 26
807
FTUS43 KIND 121614 AAB
TAFIND
TAF AMD
KIND 121614Z 1216/1318 28010KT P6SM BKN030 OVC070
     FM121700 28013KT P6SM BKN025 OVC040
     FM122000 29018G27KT P6SM VCSH OVC025
     FM130300 31017G25KT P6SM SCT035=

USA.gov is the U.S. government's official web portal to all federal, state and local government web resources and services.